Time;durP1;ratioP1;P1;durP2;ratioP2;P2;SDS_P1;SDS_P2;PMS_P1;PMS_P2;Temp;Humidity;BMP_temperature;BMP_pressure;BME280_temperature;BME280_humidity;BME280_pressure;Samples;Min_cycle;Max_cycle;Signal;HPM_P1;HPM_P2
2022/12/09 00:00:33;;;;;;;;;;;;;;;-1.49;100.00;100751.19;5061574;28;20312;-79
2022/12/09 00:02:58;;;;;;;;;;;;;;;-1.49;100.00;100753.78;5044218;28;20063;-79
2022/12/09 00:05:24;;;;;;;;;;;;;;;-1.45;100.00;100748.38;5043533;28;19922;-79
2022/12/09 00:07:49;;;;;;;;;;;;;;;-1.41;100.00;100748.25;5060593;28;20371;-78
2022/12/09 00:10:14;;;;;;;;;;;;;;;-1.39;100.00;100747.25;5060816;28;20342;-79
2022/12/09 00:12:40;;;;;;;;;;;;;;;-1.47;100.00;100744.19;5061080;28;19930;-78
2022/12/09 00:15:05;;;;;;;;;;;;;;;-1.50;100.00;100739.19;5061211;28;19973;-78
2022/12/09 00:17:30;;;;;;;;;;;;;;;-1.50;100.00;100741.75;5060421;28;19924;-78
2022/12/09 00:19:55;;;;;;;;;;;;;;;-1.55;100.00;100746.31;5042644;28;19919;-79
2022/12/09 00:22:21;;;;;;;;;;;;;;;-1.68;100.00;100738.28;5061035;28;20303;-79
2022/12/09 00:24:47;;;;;;;;;;;;;;;-1.72;100.00;100742.81;5058981;28;19920;-79
2022/12/09 00:27:12;;;;;;;;;;;;;;;-1.70;100.00;100745.28;5058364;28;19917;-79
2022/12/09 00:29:38;;;;;;;;;;;;;;;-1.64;100.00;100736.41;5057570;28;19916;-79
2022/12/09 00:32:03;;;;;;;;;;;;;;;-1.59;100.00;100739.59;5065684;28;19917;-79
2022/12/09 00:34:28;;;;;;;;;;;;;;;-1.56;100.00;100734.28;5058976;28;19921;-79
2022/12/09 00:36:53;;;;;;;;;;;;;;;-1.59;100.00;100730.13;5058663;28;20376;-79
2022/12/09 00:39:19;;;;;;;;;;;;;;;-1.64;100.00;100726.88;5059426;28;19974;-80
2022/12/09 00:41:44;;;;;;;;;;;;;;;-1.67;100.00;100724.47;5059706;28;19916;-79
2022/12/09 00:44:10;;;;;;;;;;;;;;;-1.70;100.00;100732.34;5059675;28;19921;-79
2022/12/09 00:46:35;;;;;;;;;;;;;;;-1.71;100.00;100731.53;5060115;28;19916;-79
2022/12/09 00:49:01;;;;;;;;;;;;;;;-1.67;100.00;100734.81;5058794;28;19959;-79
2022/12/09 00:51:27;;;;;;;;;;;;;;;-1.65;100.00;100738.16;5060038;28;19945;-79
2022/12/09 00:53:54;;;;;;;;;;;;;;;-1.69;100.00;100734.03;5059183;28;19931;-80
2022/12/09 00:56:20;;;;;;;;;;;;;;;-1.66;100.00;100739.06;5042055;28;20011;-80
2022/12/09 00:58:46;;;;;;;;;;;;;;;-1.63;100.00;100728.56;5058795;28;19916;-80
2022/12/09 01:01:11;;;;;;;;;;;;;;;-1.61;100.00;100731.06;5058933;28;19917;-79
2022/12/09 01:03:37;;;;;;;;;;;;;;;-1.58;100.00;100736.13;5043237;28;20288;-79
2022/12/09 01:06:06;;;;;;;;;;;;;;;-1.59;100.00;100730.13;5059558;28;20704;-79
2022/12/09 01:08:31;;;;;;;;;;;;;;;-1.54;100.00;100732.47;5058636;28;19919;-79
2022/12/09 01:10:56;;;;;;;;;;;;;;;-1.50;100.00;100728.81;5060839;28;19917;-79
2022/12/09 01:13:22;;;;;;;;;;;;;;;-1.54;100.00;100732.47;5058663;28;20046;-79
2022/12/09 01:15:47;;;;;;;;;;;;;;;-1.57;100.00;100737.78;5059386;28;20513;-79
2022/12/09 01:18:12;;;;;;;;;;;;;;;-1.57;100.00;100738.59;5043099;28;19922;-79
2022/12/09 01:20:38;;;;;;;;;;;;;;;-1.60;100.00;100738.78;5042537;28;20356;-79
2022/12/09 01:23:03;;;;;;;;;;;;;;;-1.61;100.00;100737.09;5061183;28;19916;-80
2022/12/09 01:25:28;;;;;;;;;;;;;;;-1.62;100.00;100745.78;5058703;28;19928;-79
2022/12/09 01:27:53;;;;;;;;;;;;;;;-1.67;100.00;100751.16;5058063;28;19915;-79
2022/12/09 01:30:19;;;;;;;;;;;;;;;-1.77;100.00;100741.34;5059696;28;20299;-80
2022/12/09 01:32:45;;;;;;;;;;;;;;;-1.86;100.00;100745.19;5041618;28;20358;-80
2022/12/09 01:35:10;;;;;;;;;;;;;;;-1.88;100.00;100740.09;5059253;28;19930;-79
2022/12/09 01:37:36;;;;;;;;;;;;;;;-1.92;100.00;100742.91;5058723;28;20544;-79
2022/12/09 01:40:03;;;;;;;;;;;;;;;-1.90;100.00;100741.91;5059662;28;19973;-80
2022/12/09 01:42:28;;;;;;;;;;;;;;;-2.00;100.00;100739.81;5074104;28;20338;-80
2022/12/09 01:45:12;;;;;;;;;;;;;;;-1.97;100.00;100744.88;5059050;28;19958;-79
2022/12/09 01:47:38;;;;;;;;;;;;;;;-1.95;100.00;100737.88;5059036;28;19973;-79
2022/12/09 01:50:03;;;;;;;;;;;;;;;-1.96;100.00;100742.22;5059668;28;19912;-79
2022/12/09 01:52:28;;;;;;;;;;;;;;;-1.99;100.00;100738.94;5059920;28;19924;-79
2022/12/09 01:54:54;;;;;;;;;;;;;;;-2.02;100.00;100741.69;5059298;28;19919;-79
2022/12/09 01:57:19;;;;;;;;;;;;;;;-2.12;100.00;100731.75;5041557;28;19916;-80
2022/12/09 01:59:44;;;;;;;;;;;;;;;-2.19;100.00;100737.28;5058354;28;19927;-81
2022/12/09 02:02:13;;;;;;;;;;;;;;;-2.23;100.00;100734.00;5058593;28;19912;-80
2022/12/09 02:04:40;;;;;;;;;;;;;;;-2.22;100.00;100729.66;5057320;28;19919;-81
2022/12/09 02:07:07;;;;;;;;;;;;;;;-2.17;100.00;100731.13;5059496;28;20303;-80
2022/12/09 02:09:33;;;;;;;;;;;;;;;-2.17;100.00;100728.53;5058823;28;19911;-80
2022/12/09 02:12:07;;;;;;;;;;;;;;;-2.17;100.00;100727.72;5057418;28;19990;-79
2022/12/09 02:14:44;;;;;;;;;;;;;;;-2.09;100.00;100725.59;5064441;28;21329;-80
2022/12/09 02:17:15;;;;;;;;;;;;;;;-2.06;100.00;100730.63;5059405;28;19926;-80
2022/12/09 02:20:00;;;;;;;;;;;;;;;-2.05;100.00;100731.47;5056638;28;19956;-80
2022/12/09 02:22:30;;;;;;;;;;;;;;;-2.05;100.00;100726.28;5058220;28;19928;-80
2022/12/09 02:25:05;;;;;;;;;;;;;;;-2.00;100.00;100729.47;5059970;28;19914;-81
2022/12/09 02:27:51;;;;;;;;;;;;;;;-1.99;100.00;100736.34;5060051;28;19916;-80
2022/12/09 02:30:21;;;;;;;;;;;;;;;-2.03;100.00;100721.88;5032341;28;19909;-80
2022/12/09 02:33:16;;;;;;;;;;;;;;;-2.04;100.00;100718.47;5063427;28;19938;-80
2022/12/09 02:35:44;;;;;;;;;;;;;;;-2.07;100.00;100718.59;4983493;28;19961;-80
2022/12/09 02:38:14;;;;;;;;;;;;;;;-2.05;100.00;100726.28;4999646;28;19991;-80
2022/12/09 02:40:52;;;;;;;;;;;;;;;-2.10;100.00;100721.34;4983573;28;20445;-80
2022/12/09 02:43:21;;;;;;;;;;;;;;;-2.10;100.00;100714.41;4999354;28;19921;-80
2022/12/09 02:45:47;;;;;;;;;;;;;;;-2.11;100.00;100717.91;5000214;28;20639;-80
2022/12/09 02:48:14;;;;;;;;;;;;;;;-2.04;100.00;100715.88;4988865;28;19925;-80
2022/12/09 02:50:41;;;;;;;;;;;;;;;-2.08;100.00;100717.75;5000060;28;19913;-81
2022/12/09 02:53:08;;;;;;;;;;;;;;;-2.08;100.00;100715.19;5000482;28;20348;-81
2022/12/09 02:55:34;;;;;;;;;;;;;;;-2.00;100.00;100719.13;4999802;28;20312;-80
2022/12/09 02:58:00;;;;;;;;;;;;;;;-2.02;100.00;100718.41;4981989;28;19953;-80
2022/12/09 03:00:26;;;;;;;;;;;;;;;-2.01;100.00;100722.66;5000019;28;19953;-80
2022/12/09 03:02:53;;;;;;;;;;;;;;;-1.99;100.00;100726.84;4982984;28;19961;-80
2022/12/09 03:05:42;;;;;;;;;;;;;;;-1.92;100.00;100730.78;4999348;28;19933;-80
2022/12/09 03:08:07;;;;;;;;;;;;;;;-1.88;100.00;100731.50;4986293;28;20396;-79
2022/12/09 03:10:32;;;;;;;;;;;;;;;-1.90;100.00;100730.72;5000486;28;19913;-80
2022/12/09 03:13:00;;;;;;;;;;;;;;;-1.92;100.00;100733.38;5031537;28;19908;-79
2022/12/09 03:15:28;;;;;;;;;;;;;;;-1.96;100.00;100724.13;5041128;28;20283;-80
2022/12/09 03:17:55;;;;;;;;;;;;;;;-1.90;100.00;100722.97;5041322;28;19963;-80
2022/12/09 03:20:27;;;;;;;;;;;;;;;-1.88;100.00;100718.56;5041074;28;19913;-81
2022/12/09 03:22:55;;;;;;;;;;;;;;;-1.84;100.00;100720.09;5041080;28;20575;-80
2022/12/09 03:25:26;;;;;;;;;;;;;;;-1.81;100.00;100713.94;5041355;28;19921;-81
2022/12/09 03:27:57;;;;;;;;;;;;;;;-1.80;100.00;100719.03;5041119;28;19909;-81
2022/12/09 03:30:23;;;;;;;;;;;;;;;-1.73;100.00;100709.22;5041855;28;20392;-80
2022/12/09 03:32:49;;;;;;;;;;;;;;;-1.65;100.00;100709.69;5040557;28;19916;-80
2022/12/09 03:35:20;;;;;;;;;;;;;;;-1.61;100.00;100705.19;5045359;28;19916;-80
2022/12/09 03:37:47;;;;;;;;;;;;;;;-1.60;100.00;100701.72;5060653;28;19919;-80
2022/12/09 03:40:14;;;;;;;;;;;;;;;-1.61;100.00;100694.84;5067928;28;19995;-81
2022/12/09 03:42:53;;;;;;;;;;;;;;;-1.69;100.00;100688.31;5060804;28;20520;-80
2022/12/09 03:45:19;;;;;;;;;;;;;;;-1.74;100.00;100679.94;5061001;28;19924;-81
2022/12/09 03:47:45;;;;;;;;;;;;;;;-1.74;100.00;100681.66;5059742;28;19912;-80
2022/12/09 03:50:11;;;;;;;;;;;;;;;-1.72;100.00;100688.47;5042598;28;19951;-80
2022/12/09 03:52:39;;;;;;;;;;;;;;;-1.68;100.00;100683.97;5065306;28;19924;-80
2022/12/09 03:55:18;;;;;;;;;;;;;;;-1.70;100.00;100680.59;5061001;28;20295;-80
2022/12/09 03:57:44;;;;;;;;;;;;;;;-1.70;100.00;100681.47;5061078;28;19919;-81
2022/12/09 04:00:10;;;;;;;;;;;;;;;-1.70;100.00;100673.72;5073772;28;19917;-79
2022/12/09 04:02:36;;;;;;;;;;;;;;;-1.67;100.00;100680.47;5061698;28;19912;-81
2022/12/09 04:05:01;;;;;;;;;;;;;;;-1.63;100.00;100675.97;5059465;28;19916;-80
2022/12/09 04:07:26;;;;;;;;;;;;;;;-1.60;100.00;100670.66;5061673;28;19909;-79
2022/12/09 04:09:52;;;;;;;;;;;;;;;-1.62;100.00;100669.88;5065486;28;19927;-81
2022/12/09 04:12:17;;;;;;;;;;;;;;;-1.67;100.00;100670.13;5060421;28;19936;-81
2022/12/09 04:14:42;;;;;;;;;;;;;;;-1.66;100.00;100671.78;5060286;28;19959;-80
2022/12/09 04:17:09;;;;;;;;;;;;;;;-1.68;100.00;100666.69;5059444;28;20006;-81
2022/12/09 04:19:34;;;;;;;;;;;;;;;-1.64;100.00;100669.13;5059813;28;20084;-81
2022/12/09 04:22:00;;;;;;;;;;;;;;;-1.69;100.00;100672.78;5044900;28;19943;-79
2022/12/09 04:24:25;;;;;;;;;;;;;;;-1.73;100.00;100673.84;5060960;28;19926;-81
2022/12/09 04:26:50;;;;;;;;;;;;;;;-1.77;100.00;100661.97;5058788;28;19916;-81
2022/12/09 04:29:15;;;;;;;;;;;;;;;-1.79;100.00;100665.53;5057122;28;19920;-81
2022/12/09 04:31:41;;;;;;;;;;;;;;;-1.80;100.00;100667.31;5067954;28;19916;-80
2022/12/09 04:34:06;;;;;;;;;;;;;;;-1.75;100.00;100661.91;5058784;28;19920;-80
2022/12/09 04:36:31;;;;;;;;;;;;;;;-1.79;100.00;100662.94;5057507;28;20360;-80
2022/12/09 04:38:57;;;;;;;;;;;;;;;-1.78;100.00;100665.47;5060082;28;19923;-81
2022/12/09 04:41:23;;;;;;;;;;;;;;;-1.78;100.00;100657.72;5060914;28;20432;-81
2022/12/09 04:43:48;;;;;;;;;;;;;;;-1.78;100.00;100660.31;5060394;28;19925;-81
2022/12/09 04:46:14;;;;;;;;;;;;;;;-1.74;100.00;100671.31;5060506;28;20512;-80
2022/12/09 04:48:40;;;;;;;;;;;;;;;-1.78;100.00;100662.88;5058353;28;19943;-80
2022/12/09 04:51:09;;;;;;;;;;;;;;;-1.77;100.00;100671.47;5058477;28;19916;-80
2022/12/09 04:53:34;;;;;;;;;;;;;;;-1.77;100.00;100669.72;5060554;28;19917;-80
2022/12/09 04:56:00;;;;;;;;;;;;;;;-1.72;100.00;100674.66;5058252;28;20501;-80
2022/12/09 04:58:26;;;;;;;;;;;;;;;-1.75;100.00;100678.25;5059545;28;20413;-80
2022/12/09 05:00:51;;;;;;;;;;;;;;;-1.72;100.00;100675.53;5056788;28;19924;-80
2022/12/09 05:03:16;;;;;;;;;;;;;;;-1.72;100.00;100678.13;5060103;28;19995;-79
2022/12/09 05:05:41;;;;;;;;;;;;;;;-1.72;100.00;100672.06;5058749;28;19920;-79
2022/12/09 05:08:07;;;;;;;;;;;;;;;-1.75;100.00;100670.47;5059405;28;19923;-79
2022/12/09 05:10:32;;;;;;;;;;;;;;;-1.74;100.00;100667.00;5059749;28;19913;-79
2022/12/09 05:12:57;;;;;;;;;;;;;;;-1.72;100.00;100657.41;5041518;28;19916;-79
2022/12/09 05:15:22;;;;;;;;;;;;;;;-1.68;100.00;100658.09;5060548;28;20391;-79
2022/12/09 05:17:48;;;;;;;;;;;;;;;-1.67;100.00;100655.44;5058810;28;19912;-79
2022/12/09 05:20:13;;;;;;;;;;;;;;;-1.65;100.00;100655.34;5058928;28;19916;-79
2022/12/09 05:22:38;;;;;;;;;;;;;;;-1.62;100.00;100649.19;5058742;28;20054;-79
2022/12/09 05:25:04;;;;;;;;;;;;;;;-1.61;100.00;100656.03;5057808;28;19927;-79
2022/12/09 05:27:29;;;;;;;;;;;;;;;-1.60;100.00;100655.13;5042097;28;20019;-79
2022/12/09 05:29:54;;;;;;;;;;;;;;;-1.62;100.00;100651.78;5042111;28;19971;-79
2022/12/09 05:32:20;;;;;;;;;;;;;;;-1.61;100.00;100648.25;5056580;28;19920;-79
2022/12/09 05:34:45;;;;;;;;;;;;;;;-1.63;100.00;100642.31;5066292;28;19919;-80
2022/12/09 05:37:14;;;;;;;;;;;;;;;-1.64;100.00;100643.25;5042878;28;19935;-79
2022/12/09 05:39:39;;;;;;;;;;;;;;;-1.66;100.00;100648.50;5065680;28;19913;-79
2022/12/09 05:42:05;;;;;;;;;;;;;;;-1.69;100.00;100651.25;5042829;28;20375;-79
2022/12/09 05:44:30;;;;;;;;;;;;;;;-1.68;100.00;100643.41;5058480;28;20287;-79
2022/12/09 05:46:56;;;;;;;;;;;;;;;-1.69;100.00;100646.91;5059137;28;19923;-79
2022/12/09 05:49:21;;;;;;;;;;;;;;;-1.76;100.00;100642.94;5040981;28;19920;-79
2022/12/09 05:51:46;;;;;;;;;;;;;;;-1.79;100.00;100656.03;5057324;28;19919;-80
2022/12/09 05:54:12;;;;;;;;;;;;;;;-1.83;100.00;100651.06;5058645;28;19917;-80
2022/12/09 05:56:37;;;;;;;;;;;;;;;-1.83;100.00;100649.31;5059657;28;20461;-80
2022/12/09 05:59:02;;;;;;;;;;;;;;;-1.87;100.00;100647.81;5054962;28;19959;-80
2022/12/09 06:01:27;;;;;;;;;;;;;;;-1.89;100.00;100645.31;5056746;28;19965;-80
2022/12/09 06:03:53;;;;;;;;;;;;;;;-1.91;100.00;100647.13;5059503;28;19912;-80
2022/12/09 06:06:19;;;;;;;;;;;;;;;-1.92;100.00;100649.78;5058264;28;19921;-80
2022/12/09 06:08:45;;;;;;;;;;;;;;;-1.91;100.00;100641.13;5063554;28;19924;-79
2022/12/09 06:11:15;;;;;;;;;;;;;;;-1.90;100.00;100629.84;5056138;28;20371;-79
2022/12/09 06:13:41;;;;;;;;;;;;;;;-1.94;100.00;100641.25;5057136;28;20363;-79
2022/12/09 06:16:07;;;;;;;;;;;;;;;-1.92;100.00;100631.66;5057715;28;20003;-79
2022/12/09 06:18:32;;;;;;;;;;;;;;;-1.93;100.00;100635.19;5056480;28;19991;-79
2022/12/09 06:20:58;;;;;;;;;;;;;;;-1.90;100.00;100633.25;5057111;28;20019;-80
2022/12/09 06:23:23;;;;;;;;;;;;;;;-1.87;100.00;100637.47;5059183;28;19969;-79
2022/12/09 06:25:48;;;;;;;;;;;;;;;-1.84;100.00;100637.31;5058637;28;19912;-80
2022/12/09 06:28:13;;;;;;;;;;;;;;;-1.88;100.00;100628.84;5042013;28;20368;-79
2022/12/09 06:30:39;;;;;;;;;;;;;;;-1.89;100.00;100636.72;5060701;28;19989;-77
2022/12/09 06:33:04;;;;;;;;;;;;;;;-1.92;100.00;100634.25;5056777;28;19959;-79
2022/12/09 06:35:30;;;;;;;;;;;;;;;-1.93;100.00;100637.78;5054696;28;19928;-80
2022/12/09 06:37:55;;;;;;;;;;;;;;;-1.93;100.00;100637.78;5055971;28;19931;-80
2022/12/09 06:40:21;;;;;;;;;;;;;;;-1.94;100.00;100641.25;5036635;28;19920;-80
2022/12/09 06:42:49;;;;;;;;;;;;;;;-1.91;100.00;100631.59;5036900;28;20783;-81
2022/12/09 06:45:14;;;;;;;;;;;;;;;-1.93;100.00;100632.59;5055020;28;19989;-83
2022/12/09 06:47:40;;;;;;;;;;;;;;;-1.95;100.00;100634.41;5047812;28;20387;-80
2022/12/09 06:50:05;;;;;;;;;;;;;;;-1.95;100.00;100635.25;5051363;28;19969;-80
2022/12/09 06:52:31;;;;;;;;;;;;;;;-1.96;100.00;100636.19;5052717;28;20019;-81
2022/12/09 06:54:56;;;;;;;;;;;;;;;-1.97;100.00;100634.50;5068625;28;19966;-83
2022/12/09 06:57:21;;;;;;;;;;;;;;;-1.97;100.00;100631.06;5037162;28;19920;-81
2022/12/09 06:59:47;;;;;;;;;;;;;;;-1.91;100.00;100625.59;5068155;28;20378;-80
2022/12/09 07:02:12;;;;;;;;;;;;;;;-1.88;100.00;100628.84;5053965;28;19932;-83
2022/12/09 07:04:37;;;;;;;;;;;;;;;-1.88;100.00;100622.84;5056458;28;19920;-80
2022/12/09 07:07:03;;;;;;;;;;;;;;;-1.82;100.00;100632.91;5053348;28;20339;-80
2022/12/09 07:09:28;;;;;;;;;;;;;;;-1.79;100.00;100634.50;5039393;28;20273;-80
2022/12/09 07:11:53;;;;;;;;;;;;;;;-1.76;100.00;100642.94;5058677;28;19970;-80
2022/12/09 07:14:18;;;;;;;;;;;;;;;-1.70;100.00;100645.25;5060422;28;19928;-80
2022/12/09 07:16:44;;;;;;;;;;;;;;;-1.66;100.00;100649.31;5043584;28;19912;-78
2022/12/09 07:19:17;;;;;;;;;;;;;;;-1.69;100.00;100646.91;5059275;28;19927;-79
2022/12/09 07:21:42;;;;;;;;;;;;;;;-1.77;100.00;100649.03;5065963;28;19916;-79
2022/12/09 07:24:08;;;;;;;;;;;;;;;-1.79;100.00;100630.16;5059163;28;20632;-78
2022/12/09 07:26:34;;;;;;;;;;;;;;;-1.80;100.00;100633.66;5076352;28;19994;-78
2022/12/09 07:29:03;;;;;;;;;;;;;;;-1.86;100.00;100629.63;5060548;28;20066;-79
2022/12/09 07:31:28;;;;;;;;;;;;;;;-1.90;100.00;100629.84;5066981;28;20379;-79
2022/12/09 07:33:55;;;;;;;;;;;;;;;-1.89;100.00;100636.72;5060860;28;19915;-79
2022/12/09 07:36:21;;;;;;;;;;;;;;;-1.82;100.00;100640.66;5059818;28;20384;-79
2022/12/09 07:38:47;;;;;;;;;;;;;;;-1.79;100.00;100645.69;5058599;28;19916;-79
2022/12/09 07:41:16;;;;;;;;;;;;;;;-1.83;100.00;100641.56;5061211;28;20386;-79
2022/12/09 07:43:42;;;;;;;;;;;;;;;-1.82;100.00;100640.66;5058690;28;20364;-79
2022/12/09 07:46:07;;;;;;;;;;;;;;;-1.82;100.00;100640.66;5043828;28;19917;-79
2022/12/09 07:48:33;;;;;;;;;;;;;;;-1.83;100.00;100649.31;5059029;28;19919;-78
2022/12/09 07:50:59;;;;;;;;;;;;;;;-1.82;100.00;100645.84;5058440;28;19916;-79
2022/12/09 07:53:24;;;;;;;;;;;;;;;-1.81;100.00;100646.66;5059072;28;19908;-79
2022/12/09 07:55:50;;;;;;;;;;;;;;;-1.75;100.00;100651.53;5060106;28;19913;-80
2022/12/09 07:58:15;;;;;;;;;;;;;;;-1.73;100.00;100650.56;5059510;28;19913;-79
2022/12/09 08:00:40;;;;;;;;;;;;;;;-1.70;100.00;100649.56;5050258;28;19917;-79
2022/12/09 08:03:05;;;;;;;;;;;;;;;-1.69;100.00;100662.44;5059608;28;19924;-78
2022/12/09 08:05:31;;;;;;;;;;;;;;;-1.64;100.00;100666.53;5059991;28;19987;-78
2022/12/09 08:07:56;;;;;;;;;;;;;;;-1.60;100.00;100657.72;5058952;28;20284;-77
2022/12/09 08:10:21;;;;;;;;;;;;;;;-1.54;100.00;100660.00;5058883;28;20479;-75
2022/12/09 08:12:47;;;;;;;;;;;;;;;-1.49;100.00;100665.78;5059270;28;20688;-75
2022/12/09 08:15:12;;;;;;;;;;;;;;;-1.46;100.00;100669.06;5058472;28;19970;-76
2022/12/09 08:17:37;;;;;;;;;;;;;;;-1.36;100.00;100663.41;5061211;28;19993;-78
2022/12/09 08:20:03;;;;;;;;;;;;;;;-1.22;100.00;100670.44;5060189;28;19983;-77
2022/12/09 08:22:28;;;;;;;;;;;;;;;-1.11;100.00;100669.00;5057881;28;19916;-76
2022/12/09 08:24:53;;;;;;;;;;;;;;;-1.04;100.00;100674.69;5057203;28;20011;-77
2022/12/09 08:27:19;;;;;;;;;;;;;;;-0.85;100.00;100679.72;5057989;28;19920;-77
2022/12/09 08:29:44;;;;;;;;;;;;;;;-0.65;100.00;100678.69;5058404;28;19920;-74
2022/12/09 08:32:09;;;;;;;;;;;;;;;-0.52;100.00;100682.31;5044303;28;20420;-76
2022/12/09 08:34:34;;;;;;;;;;;;;;;-0.19;100.00;100683.97;5042836;28;20279;-76
2022/12/09 08:37:00;;;;;;;;;;;;;;;0.16;100.00;100700.16;5058796;28;19929;-74
2022/12/09 08:39:25;;;;;;;;;;;;;;;0.57;100.00;100688.31;5060177;28;19916;-73
2022/12/09 08:41:50;;;;;;;;;;;;;;;0.70;100.00;100697.06;5058686;28;19947;-75
2022/12/09 08:44:17;;;;;;;;;;;;;;;0.74;100.00;100692.50;5058895;28;19962;-76
2022/12/09 08:46:43;;;;;;;;;;;;;;;0.93;100.00;100689.66;5058885;28;19995;-76
2022/12/09 08:49:09;;;;;;;;;;;;;;;1.31;100.00;100684.75;5059384;28;19917;-74
2022/12/09 08:51:35;;;;;;;;;;;;;;;0.88;100.00;100673.50;5060639;28;20284;-76
2022/12/09 08:54:00;;;;;;;;;;;;;;;0.78;100.00;100670.63;5058178;28;19956;-77
2022/12/09 08:56:26;;;;;;;;;;;;;;;0.71;100.00;100667.53;5058702;28;19913;-77
2022/12/09 08:58:52;;;;;;;;;;;;;;;0.65;100.00;100656.69;5059357;28;19955;-75
2022/12/09 09:01:18;;;;;;;;;;;;;;;0.50;100.00;100650.63;5060218;28;19916;-76
2022/12/09 09:03:44;;;;;;;;;;;;;;;0.31;100.00;100656.91;5059329;28;19913;-75
2022/12/09 09:06:10;;;;;;;;;;;;;;;0.33;100.00;100655.06;5057951;28;19966;-74
2022/12/09 09:08:35;;;;;;;;;;;;;;;0.33;100.00;100659.44;5057737;28;19917;-77
2022/12/09 09:11:01;;;;;;;;;;;;;;;0.32;100.00;100661.16;5060052;28;20535;-78
2022/12/09 09:13:26;;;;;;;;;;;;;;;0.48;100.00;100662.88;5042560;28;19920;-75
2022/12/09 09:15:51;;;;;;;;;;;;;;;0.70;100.00;100657.28;5059413;28;19989;-76
2022/12/09 09:18:16;;;;;;;;;;;;;;;0.68;100.00;100653.94;5057972;28;19920;-78
2022/12/09 09:20:51;;;;;;;;;;;;;;;0.62;100.00;100662.91;5057512;28;19919;-78
2022/12/09 09:23:16;;;;;;;;;;;;;;;0.78;100.00;100660.22;5058187;28;19916;-77
2022/12/09 09:25:42;;;;;;;;;;;;;;;0.80;100.00;100661.78;5058864;28;19927;-78
2022/12/09 09:28:08;;;;;;;;;;;;;;;0.66;100.00;100659.19;5060432;28;19948;-80
2022/12/09 09:30:33;;;;;;;;;;;;;;;1.24;100.00;100667.81;5058267;28;19916;-78
2022/12/09 09:32:59;;;;;;;;;;;;;;;2.96;100.00;100666.22;5047609;28;20501;-78
2022/12/09 09:35:24;;;;;;;;;;;;;;;3.86;100.00;100666.88;5058607;28;19924;-77
2022/12/09 09:37:50;;;;;;;;;;;;;;;5.22;100.00;100663.59;5055962;28;19920;-78
2022/12/09 09:40:15;;;;;;;;;;;;;;;6.66;100.00;100660.75;5064003;28;19919;-77
2022/12/09 09:42:45;;;;;;;;;;;;;;;7.82;100.00;100648.03;5058504;28;19924;-78
2022/12/09 09:45:14;;;;;;;;;;;;;;;8.34;100.00;100642.50;5056753;28;19912;-78
2022/12/09 09:47:42;;;;;;;;;;;;;;;7.40;100.00;100644.75;5057896;28;19943;-79
2022/12/09 09:50:26;;;;;;;;;;;;;;;6.67;100.00;100644.06;5057933;28;19930;-78
2022/12/09 09:52:52;;;;;;;;;;;;;;;6.90;100.00;100642.94;5058817;28;19920;-78
2022/12/09 09:55:21;;;;;;;;;;;;;;;7.33;100.00;100646.28;5056107;28;19966;-78
2022/12/09 09:57:47;;;;;;;;;;;;;;;7.86;100.00;100653.00;5056821;28;19912;-77
2022/12/09 10:00:33;;;;;;;;;;;;;;;8.27;100.00;100653.69;5055913;28;19919;-77
2022/12/09 10:03:08;;;;;;;;;;;;;;;8.12;100.00;100648.03;5055806;28;19920;-80
2022/12/09 10:05:34;;;;;;;;;;;;;;;8.91;100.00;100653.06;5068815;28;19931;-78
2022/12/09 10:08:13;;;;;;;;;;;;;;;9.98;98.25;100649.00;5074179;28;20320;-78
2022/12/09 10:11:13;;;;;;;;;;;;;;;10.43;90.37;100648.91;5059274;28;20620;-79
2022/12/09 10:13:39;;;;;;;;;;;;;;;11.19;88.14;100646.50;4986429;28;19999;-79
2022/12/09 10:16:16;;;;;;;;;;;;;;;12.88;81.93;100647.81;4996446;28;20008;-78
2022/12/09 10:18:44;;;;;;;;;;;;;;;13.14;68.39;100649.41;4996597;28;20522;-79
2022/12/09 10:21:13;;;;;;;;;;;;;;;13.12;65.02;100640.78;4996843;28;20605;-80
2022/12/09 10:23:38;;;;;;;;;;;;;;;12.25;69.50;100644.09;4997949;28;20385;-80
2022/12/09 10:26:05;;;;;;;;;;;;;;;12.05;69.80;100640.16;4982165;28;19917;-80
2022/12/09 10:28:36;;;;;;;;;;;;;;;12.27;70.50;100642.13;5004730;28;20387;-80
2022/12/09 10:31:01;;;;;;;;;;;;;;;13.00;66.19;100639.50;4986073;28;19924;-80
2022/12/09 10:33:28;;;;;;;;;;;;;;;12.97;64.29;100643.31;4980801;28;19926;-80
2022/12/09 10:35:53;;;;;;;;;;;;;;;13.94;60.20;100646.50;4996486;28;19940;-81
2022/12/09 10:38:20;;;;;;;;;;;;;;;13.21;59.55;100641.59;5004652;28;19913;-79
2022/12/09 10:40:46;;;;;;;;;;;;;;;11.60;65.34;100639.53;5003109;28;20362;-79
2022/12/09 10:43:39;;;;;;;;;;;;;;;11.36;68.62;100637.66;5003011;28;19941;-79
2022/12/09 10:46:30;;;;;;;;;;;;;;;11.79;68.50;100651.66;4998507;28;19910;-79
2022/12/09 10:49:00;;;;;;;;;;;;;;;10.84;71.23;100643.03;5054743;28;19908;-79
2022/12/09 10:51:27;;;;;;;;;;;;;;;10.89;75.79;100638.94;5060266;28;19912;-80
2022/12/09 10:53:52;;;;;;;;;;;;;;;10.29;74.09;100639.72;5060447;28;20492;-79
2022/12/09 10:56:26;;;;;;;;;;;;;;;10.61;78.99;100643.56;5060162;28;20015;-79
2022/12/09 10:59:11;;;;;;;;;;;;;;;10.35;79.09;100640.09;5066798;28;19935;-79
2022/12/09 11:01:47;;;;;;;;;;;;;;;9.68;82.22;100645.72;5050426;28;19991;-81
2022/12/09 11:04:12;;;;;;;;;;;;;;;8.82;86.50;100632.88;5076388;28;19919;-81
2022/12/09 11:06:39;;;;;;;;;;;;;;;8.74;91.92;100630.94;5060781;28;19995;-82
2022/12/09 11:09:04;;;;;;;;;;;;;;;7.52;95.24;100627.13;5067759;28;19947;-81
2022/12/09 11:11:46;;;;;;;;;;;;;;;7.00;100.00;100622.81;5062268;28;19924;-81
2022/12/09 11:14:34;;;;;;;;;;;;;;;5.64;100.00;100621.91;5061459;28;19926;-81
2022/12/09 11:17:11;;;;;;;;;;;;;;;4.94;100.00;100621.28;5031319;28;19924;-81
2022/12/09 11:19:37;;;;;;;;;;;;;;;4.31;100.00;100620.00;5061188;28;19908;-81
2022/12/09 11:22:21;;;;;;;;;;;;;;;3.73;100.00;100619.09;5059572;28;19912;-81
2022/12/09 11:24:47;;;;;;;;;;;;;;;3.53;100.00;100623.97;5059137;28;19917;-80
2022/12/09 11:27:24;;;;;;;;;;;;;;;3.04;100.00;100620.44;5059509;28;19923;-80
2022/12/09 11:30:04;;;;;;;;;;;;;;;3.06;100.00;100620.34;5060331;28;20469;-81
2022/12/09 11:32:30;;;;;;;;;;;;;;;2.93;100.00;100619.53;5060666;28;19908;-81
2022/12/09 11:34:55;;;;;;;;;;;;;;;2.74;100.00;100620.78;5061336;28;19908;-81
2022/12/09 11:37:20;;;;;;;;;;;;;;;2.52;100.00;100618.81;5060539;28;19925;-80
2022/12/09 11:39:49;;;;;;;;;;;;;;;2.31;100.00;100622.84;5060069;28;19970;-80
2022/12/09 11:42:21;;;;;;;;;;;;;;;2.05;100.00;100628.03;5058798;28;19909;-80
2022/12/09 11:45:00;;;;;;;;;;;;;;;1.58;100.00;100630.16;5059571;28;20283;-81
2022/12/09 11:47:28;;;;;;;;;;;;;;;1.33;100.00;100637.81;5060972;28;19909;-80
2022/12/09 11:49:58;;;;;;;;;;;;;;;0.88;100.00;100640.56;5062506;28;19908;-81
2022/12/09 11:52:25;;;;;;;;;;;;;;;0.90;100.00;100643.06;5059607;28;19909;-81
2022/12/09 11:55:03;;;;;;;;;;;;;;;0.83;100.00;100647.81;5060470;28;19920;-81
2022/12/09 11:57:32;;;;;;;;;;;;;;;0.88;100.00;100656.16;5061006;28;19909;-81
2022/12/09 12:00:00;;;;;;;;;;;;;;;0.60;100.00;100644.81;5067228;28;20295;-82
2022/12/09 12:02:32;;;;;;;;;;;;;;;0.50;100.00;100648.88;5057987;28;19916;-81
2022/12/09 12:05:18;;;;;;;;;;;;;;;0.36;100.00;100649.69;5059433;28;20888;-81
2022/12/09 12:07:56;;;;;;;;;;;;;;;0.51;100.00;100649.72;5060985;28;20160;-81
2022/12/09 12:10:23;;;;;;;;;;;;;;;0.50;100.00;100641.09;5059320;28;19909;-81
2022/12/09 12:12:55;;;;;;;;;;;;;;;0.72;100.00;100645.84;5060938;28;20003;-81
2022/12/09 12:15:27;;;;;;;;;;;;;;;0.99;100.00;100652.91;5066546;28;20389;-80
2022/12/09 12:17:54;;;;;;;;;;;;;;;0.84;100.00;100651.25;5059036;28;19915;-80
2022/12/09 12:20:21;;;;;;;;;;;;;;;0.98;100.00;100646.03;5060316;28;19919;-79
2022/12/09 12:23:12;;;;;;;;;;;;;;;1.07;100.00;100649.81;5059995;28;20038;-79
2022/12/09 12:25:45;;;;;;;;;;;;;;;0.56;100.00;100645.09;5058936;28;19909;-82
2022/12/09 12:28:16;;;;;;;;;;;;;;;0.46;100.00;100643.94;5059224;28;19912;-82
2022/12/09 12:30:53;;;;;;;;;;;;;;;0.56;100.00;100645.09;5058877;28;19912;-81
2022/12/09 12:33:48;;;;;;;;;;;;;;;0.53;100.00;100653.06;5066614;28;19993;-81